6VA5 weather

Heronwood Heliport
Upperville, Virginia, United States

Public forecast

Using degrees Fahrenheit for public forecast. Weather courtesy of forecast.io.

METAR (pilot weather report)

Closest report is Leesburg Executive Airport, 15.4 nm (28.5 km) ENE. Retrieved 2019/05/20 23:35 UTC (20 minutes ago):

KJYO 202335Z AUTO 30010KT 10SM CLR 27/12 A2983 RMK AO2

TAF (pilot weather forecast)

Closest forecast is Washington Dulles International Airport, 18.9 nm (34.9 km) E. Retrieved 2019/05/20 18:42 UTC (5 hours ago):

TAF KIAD 201741Z 2018/2124 21009KT P6SM VCTS BKN050CB BKN150 FM202100 28010KT P6SM SCT050 SCT200 FM210100 32012KT P6SM FEW250 FM211200 33013G20KT P6SM SKC FM211800 32009KT P6SM FEW090